Winnemucca, NV

11:16 AM PDT on October 01, 2014 (GMT -0700)
Winnemucca Municipal | Change Station
CLOSE
Current Station
Airport
Location: Winnemucca,
Elevation: 4311 ft
Nearby Weather Stations

Elev 4311 ft 40.90 °N, 117.81 °W | Updated 20 minutes ago

Clear
Clear
52 °F
Feels Like 52 °F
N
8
Wind Variable Wind from NNE

Today
High -- | Low -- °F
--% Chance of Precip.
Yesterday
High -- | Low -- °F
Precip. -- in
6:47 AM 6:32 PM
Waxing Crescent, 49% visible
Pressure 30.21 in
Visibility 10.0 miles
Clouds Clear
Dew Point 34 °F
Humidity 50%
Rainfall 0.00 in
Snow Depth 0 in , 0 in , 0 in
UV 5 out of 12
Pollen 6.50 out of 12
Air Quality Not available.
Flu Activity Not available.
METAR KWMC 011756Z AUTO 03007KT 10SM CLR 11/01 A3023 RMK AO2 SLP228 T01110011 10117 21017 51010

More Conditions Fewer Conditions

Pressure 30.21 in
Visibility 10.0 miles
Clouds Clear
Dew Point 34 °F
Humidity 50%
Rainfall 0.00 in
Snow Depth 0 in , 0 in , 0 in
UV 5 out of 12
Pollen 6.50 out of 12
Air Quality Not available.
Flu Activity Not available.
METAR KWMC 011756Z AUTO 03007KT 10SM CLR 11/01 A3023 RMK AO2 SLP228 T01110011 10117 21017 51010

More Conditions Fewer Conditions

10-Day Weather Forecast

Almanac

Astronomy

Oct. 01, 2014 Rise Set
Actual Time 6:47 AM PDT 6:32 PM PDT
Civil Twilight 6:20 AM PDT 7:00 PM PDT
Nautical Twilight 5:48 AM PDT 7:32 PM PDT
Astronomical Twilight 5:16 AM PDT 8:04 PM PDT
Moon 1:55 PM PDT No Moon Set
Length of Visible Light 12h 39m
Length of Day
11h 45m
Tomorrow will be 2m 42s shorter.
Waxing Crescent, 49% of the Moon is Illuminated
Today
Waxing Crescent
Oct 1
First Quarter
Oct 8
Full
Oct 15
Last Quarter
Oct 23
New

Today's Extremes

State Highs State Lows

Community

WunderPhotos

Upload Photos

1,758,008 photos uploaded!

WunderBlogs® & News

By Dr. Jeff Masters
Director of Meteorology, Weather Underground
By Kari Strenfel
Meteorologist, Weather Underground
By Christopher C. Burt
Weather Historian, Weather Underground
October 1, 2014
October 1, 2014
October 1, 2014

Nearby

Snow Depth

Station Depth Elevation
Dorsey Basin 0 in 8100 ft
Lewis Peak 0 in 7400 ft
Green Mountain 0 in 8000 ft
Disaster Peak 0 in 6500 ft
Hole-in-mountain 0 in 7900 ft

Earthquake Activity

City Distance Mag. Time & Date
Lakeview, Oregon 109 miles 2.7 8:41 AM PDT
2014-10-01
Lakeview, Oregon 108 miles 2.6 6:57 AM PDT
2014-10-01
Lakeview, Oregon 108 miles 2.7 6:49 AM PDT
2014-10-01
Lakeview, Oregon 108 miles 3.1 6:24 AM PDT
2014-10-01
Minimum magnitude displayed is 2.5.

Coastal Water Temperatures

Place Temperature
No Stations Reporting

Nearby Weather Stations